sensor_id;sensor_type;location;lat;lon;timestamp;temperature;humidity
19567;DHT22;9930;49.240;8.548;2023-05-02T00:02:17;16.50;69.00
19567;DHT22;9930;49.240;8.548;2023-05-02T00:04:46;16.50;69.20
19567;DHT22;9930;49.240;8.548;2023-05-02T00:07:14;16.40;69.20
19567;DHT22;9930;49.240;8.548;2023-05-02T00:09:40;16.40;69.30
19567;DHT22;9930;49.240;8.548;2023-05-02T00:12:05;16.40;69.30
19567;DHT22;9930;49.240;8.548;2023-05-02T00:14:33;16.30;69.30
19567;DHT22;9930;49.240;8.548;2023-05-02T00:16:59;16.30;69.50
19567;DHT22;9930;49.240;8.548;2023-05-02T00:19:26;16.30;69.60
19567;DHT22;9930;49.240;8.548;2023-05-02T00:21:54;16.20;69.50
19567;DHT22;9930;49.240;8.548;2023-05-02T00:24:22;16.20;69.60
19567;DHT22;9930;49.240;8.548;2023-05-02T00:26:50;16.10;69.70
19567;DHT22;9930;49.240;8.548;2023-05-02T00:29:19;16.10;69.70
19567;DHT22;9930;49.240;8.548;2023-05-02T00:31:45;16.00;69.80
19567;DHT22;9930;49.240;8.548;2023-05-02T00:34:10;16.00;69.90
19567;DHT22;9930;49.240;8.548;2023-05-02T00:36:36;15.90;69.90
19567;DHT22;9930;49.240;8.548;2023-05-02T00:39:02;15.90;70.00
19567;DHT22;9930;49.240;8.548;2023-05-02T00:41:28;15.90;70.00
19567;DHT22;9930;49.240;8.548;2023-05-02T00:43:57;15.80;69.90
19567;DHT22;9930;49.240;8.548;2023-05-02T00:46:27;15.80;70.10
19567;DHT22;9930;49.240;8.548;2023-05-02T00:49:00;15.70;70.10
19567;DHT22;9930;49.240;8.548;2023-05-02T00:51:28;15.70;70.10
19567;DHT22;9930;49.240;8.548;2023-05-02T00:53:54;15.60;70.20
19567;DHT22;9930;49.240;8.548;2023-05-02T00:56:24;15.60;70.30
19567;DHT22;9930;49.240;8.548;2023-05-02T00:58:54;15.50;70.30
19567;DHT22;9930;49.240;8.548;2023-05-02T01:01:47;15.50;70.40
19567;DHT22;9930;49.240;8.548;2023-05-02T01:13:25;15.20;71.30
19567;DHT22;9930;49.240;8.548;2023-05-02T01:16:00;15.20;70.80
19567;DHT22;9930;49.240;8.548;2023-05-02T01:18:31;15.10;70.50
19567;DHT22;9930;49.240;8.548;2023-05-02T01:21:09;15.10;70.70
19567;DHT22;9930;49.240;8.548;2023-05-02T01:29:35;14.90;71.70
19567;DHT22;9930;49.240;8.548;2023-05-02T01:32:05;14.80;70.70
19567;DHT22;9930;49.240;8.548;2023-05-02T01:34:37;14.80;71.00
19567;DHT22;9930;49.240;8.548;2023-05-02T01:37:10;14.80;71.00
19567;DHT22;9930;49.240;8.548;2023-05-02T01:39:41;14.70;70.90
19567;DHT22;9930;49.240;8.548;2023-05-02T01:42:10;14.70;71.10
19567;DHT22;9930;49.240;8.548;2023-05-02T01:44:39;14.60;71.00
19567;DHT22;9930;49.240;8.548;2023-05-02T01:47:09;14.50;71.00
19567;DHT22;9930;49.240;8.548;2023-05-02T01:49:40;14.50;71.00
19567;DHT22;9930;49.240;8.548;2023-05-02T01:52:10;14.40;71.10
19567;DHT22;9930;49.240;8.548;2023-05-02T01:54:42;14.40;71.20
19567;DHT22;9930;49.240;8.548;2023-05-02T01:57:14;14.40;71.30
19567;DHT22;9930;49.240;8.548;2023-05-02T01:59:43;14.40;71.30
19567;DHT22;9930;49.240;8.548;2023-05-02T02:02:12;14.30;71.40
19567;DHT22;9930;49.240;8.548;2023-05-02T02:04:43;14.30;71.40
19567;DHT22;9930;49.240;8.548;2023-05-02T02:07:12;14.20;71.40
19567;DHT22;9930;49.240;8.548;2023-05-02T02:09:39;14.20;71.50
19567;DHT22;9930;49.240;8.548;2023-05-02T02:12:11;14.20;71.60
19567;DHT22;9930;49.240;8.548;2023-05-02T02:14:47;14.20;71.60
19567;DHT22;9930;49.240;8.548;2023-05-02T02:17:29;14.10;71.60
19567;DHT22;9930;49.240;8.548;2023-05-02T02:20:08;14.10;72.00
19567;DHT22;9930;49.240;8.548;2023-05-02T02:22:38;14.10;71.80
19567;DHT22;9930;49.240;8.548;2023-05-02T02:25:07;14.00;71.80
19567;DHT22;9930;49.240;8.548;2023-05-02T02:27:40;14.00;72.00
19567;DHT22;9930;49.240;8.548;2023-05-02T02:30:09;14.00;71.90
19567;DHT22;9930;49.240;8.548;2023-05-02T02:32:35;13.90;71.70
19567;DHT22;9930;49.240;8.548;2023-05-02T02:35:04;13.90;71.80
19567;DHT22;9930;49.240;8.548;2023-05-02T02:37:40;13.90;72.00
19567;DHT22;9930;49.240;8.548;2023-05-02T02:40:21;13.80;72.20
19567;DHT22;9930;49.240;8.548;2023-05-02T02:51:32;13.60;72.40
19567;DHT22;9930;49.240;8.548;2023-05-02T02:57:03;13.50;72.50
19567;DHT22;9930;49.240;8.548;2023-05-02T02:59:43;13.50;72.30
19567;DHT22;9930;49.240;8.548;2023-05-02T03:02:17;13.40;72.30
19567;DHT22;9930;49.240;8.548;2023-05-02T03:04:48;13.40;72.30
19567;DHT22;9930;49.240;8.548;2023-05-02T03:07:18;13.30;72.40
19567;DHT22;9930;49.240;8.548;2023-05-02T03:09:46;13.30;72.50
19567;DHT22;9930;49.240;8.548;2023-05-02T03:12:13;13.30;72.50
19567;DHT22;9930;49.240;8.548;2023-05-02T03:14:39;13.30;72.70
19567;DHT22;9930;49.240;8.548;2023-05-02T03:17:05;13.30;72.80
19567;DHT22;9930;49.240;8.548;2023-05-02T03:19:35;13.30;72.90
19567;DHT22;9930;49.240;8.548;2023-05-02T03:22:01;13.30;73.00
19567;DHT22;9930;49.240;8.548;2023-05-02T03:24:28;13.30;73.00
19567;DHT22;9930;49.240;8.548;2023-05-02T03:26:58;13.30;73.10
19567;DHT22;9930;49.240;8.548;2023-05-02T03:29:24;13.20;73.20
19567;DHT22;9930;49.240;8.548;2023-05-02T03:31:58;13.20;73.00
19567;DHT22;9930;49.240;8.548;2023-05-02T03:34:27;13.20;73.00
19567;DHT22;9930;49.240;8.548;2023-05-02T03:36:53;13.20;73.20
19567;DHT22;9930;49.240;8.548;2023-05-02T03:39:20;13.20;73.10
19567;DHT22;9930;49.240;8.548;2023-05-02T03:41:48;13.20;73.10
19567;DHT22;9930;49.240;8.548;2023-05-02T03:44:14;13.20;73.10
19567;DHT22;9930;49.240;8.548;2023-05-02T03:46:42;13.10;73.10
19567;DHT22;9930;49.240;8.548;2023-05-02T03:49:07;13.10;73.10
19567;DHT22;9930;49.240;8.548;2023-05-02T03:51:33;13.10;73.10
19567;DHT22;9930;49.240;8.548;2023-05-02T03:54:00;13.00;73.00
19567;DHT22;9930;49.240;8.548;2023-05-02T03:56:28;13.00;73.10
19567;DHT22;9930;49.240;8.548;2023-05-02T03:58:54;13.00;73.10
19567;DHT22;9930;49.240;8.548;2023-05-02T04:01:20;12.90;73.10
19567;DHT22;9930;49.240;8.548;2023-05-02T04:03:48;12.90;73.10
19567;DHT22;9930;49.240;8.548;2023-05-02T04:06:14;12.90;73.10
19567;DHT22;9930;49.240;8.548;2023-05-02T04:08:42;12.90;73.10
19567;DHT22;9930;49.240;8.548;2023-05-02T04:11:08;12.80;73.20
19567;DHT22;9930;49.240;8.548;2023-05-02T04:13:36;12.80;73.30
19567;DHT22;9930;49.240;8.548;2023-05-02T04:16:02;12.80;73.30
19567;DHT22;9930;49.240;8.548;2023-05-02T04:18:28;12.80;73.40
19567;DHT22;9930;49.240;8.548;2023-05-02T04:20:57;12.80;73.40
19567;DHT22;9930;49.240;8.548;2023-05-02T04:23:24;12.80;73.40
19567;DHT22;9930;49.240;8.548;2023-05-02T04:25:54;12.80;73.60
19567;DHT22;9930;49.240;8.548;2023-05-02T04:28:22;12.80;73.80
19567;DHT22;9930;49.240;8.548;2023-05-02T04:30:48;12.80;73.70
19567;DHT22;9930;49.240;8.548;2023-05-02T04:33:17;12.80;73.90
19567;DHT22;9930;49.240;8.548;2023-05-02T04:35:43;12.80;73.90
19567;DHT22;9930;49.240;8.548;2023-05-02T04:38:09;12.80;73.90
19567;DHT22;9930;49.240;8.548;2023-05-02T04:40:42;12.80;73.90
19567;DHT22;9930;49.240;8.548;2023-05-02T04:43:07;12.80;74.00
19567;DHT22;9930;49.240;8.548;2023-05-02T04:45:35;12.80;74.00
19567;DHT22;9930;49.240;8.548;2023-05-02T04:48:03;12.90;74.20
19567;DHT22;9930;49.240;8.548;2023-05-02T04:50:34;12.90;74.20
19567;DHT22;9930;49.240;8.548;2023-05-02T04:53:00;12.90;74.20
19567;DHT22;9930;49.240;8.548;2023-05-02T04:55:28;12.90;74.20
19567;DHT22;9930;49.240;8.548;2023-05-02T04:57:57;12.90;74.20
19567;DHT22;9930;49.240;8.548;2023-05-02T05:00:22;12.90;74.40
19567;DHT22;9930;49.240;8.548;2023-05-02T05:02:50;13.00;74.60
19567;DHT22;9930;49.240;8.548;2023-05-02T05:05:18;13.00;74.80
19567;DHT22;9930;49.240;8.548;2023-05-02T05:07:44;13.00;74.90
19567;DHT22;9930;49.240;8.548;2023-05-02T05:10:10;13.10;75.00
19567;DHT22;9930;49.240;8.548;2023-05-02T05:12:36;13.10;75.10
19567;DHT22;9930;49.240;8.548;2023-05-02T05:15:07;13.20;75.00
19567;DHT22;9930;49.240;8.548;2023-05-02T05:17:33;13.30;75.20
19567;DHT22;9930;49.240;8.548;2023-05-02T05:20:00;13.30;75.30
19567;DHT22;9930;49.240;8.548;2023-05-02T05:22:25;13.40;75.30
19567;DHT22;9930;49.240;8.548;2023-05-02T05:24:53;13.40;75.30
19567;DHT22;9930;49.240;8.548;2023-05-02T05:27:20;13.50;75.40
19567;DHT22;9930;49.240;8.548;2023-05-02T05:29:48;13.60;76.10
19567;DHT22;9930;49.240;8.548;2023-05-02T05:32:14;13.60;75.40
19567;DHT22;9930;49.240;8.548;2023-05-02T05:34:42;13.70;75.50
19567;DHT22;9930;49.240;8.548;2023-05-02T05:37:10;13.70;75.60
19567;DHT22;9930;49.240;8.548;2023-05-02T05:39:36;13.80;75.70
19567;DHT22;9930;49.240;8.548;2023-05-02T05:42:02;13.80;75.80
19567;DHT22;9930;49.240;8.548;2023-05-02T05:44:30;13.90;75.70
19567;DHT22;9930;49.240;8.548;2023-05-02T05:46:57;14.00;75.80
19567;DHT22;9930;49.240;8.548;2023-05-02T05:49:23;14.00;75.60
19567;DHT22;9930;49.240;8.548;2023-05-02T05:51:49;14.00;75.50
19567;DHT22;9930;49.240;8.548;2023-05-02T05:54:19;14.10;75.70
19567;DHT22;9930;49.240;8.548;2023-05-02T05:56:50;14.10;75.80
19567;DHT22;9930;49.240;8.548;2023-05-02T05:59:15;14.20;76.00
19567;DHT22;9930;49.240;8.548;2023-05-02T06:01:48;14.20;76.20
19567;DHT22;9930;49.240;8.548;2023-05-02T06:04:16;14.30;76.60
19567;DHT22;9930;49.240;8.548;2023-05-02T06:06:41;14.50;77.00
19567;DHT22;9930;49.240;8.548;2023-05-02T06:09:14;14.70;77.10
19567;DHT22;9930;49.240;8.548;2023-05-02T06:11:40;14.80;76.70
19567;DHT22;9930;49.240;8.548;2023-05-02T06:14:05;15.00;76.40
19567;DHT22;9930;49.240;8.548;2023-05-02T06:16:31;15.10;76.40
19567;DHT22;9930;49.240;8.548;2023-05-02T06:18:58;15.30;76.70
19567;DHT22;9930;49.240;8.548;2023-05-02T06:21:24;15.40;76.70
19567;DHT22;9930;49.240;8.548;2023-05-02T06:23:53;15.60;76.80
19567;DHT22;9930;49.240;8.548;2023-05-02T06:26:18;15.80;76.50
19567;DHT22;9930;49.240;8.548;2023-05-02T06:28:44;16.00;76.00
19567;DHT22;9930;49.240;8.548;2023-05-02T06:31:10;16.10;75.50
19567;DHT22;9930;49.240;8.548;2023-05-02T06:33:40;16.20;75.30
19567;DHT22;9930;49.240;8.548;2023-05-02T06:36:07;16.40;74.80
19567;DHT22;9930;49.240;8.548;2023-05-02T06:38:37;16.50;74.20
19567;DHT22;9930;49.240;8.548;2023-05-02T06:41:03;16.60;74.00
19567;DHT22;9930;49.240;8.548;2023-05-02T06:43:28;16.70;74.00
19567;DHT22;9930;49.240;8.548;2023-05-02T06:45:59;16.80;73.90
19567;DHT22;9930;49.240;8.548;2023-05-02T06:48:28;16.90;73.60
19567;DHT22;9930;49.240;8.548;2023-05-02T06:50:53;17.00;73.30
19567;DHT22;9930;49.240;8.548;2023-05-02T06:53:19;17.10;73.00
19567;DHT22;9930;49.240;8.548;2023-05-02T06:55:45;17.20;73.10
19567;DHT22;9930;49.240;8.548;2023-05-02T06:58:15;17.30;72.90
19567;DHT22;9930;49.240;8.548;2023-05-02T07:00:40;17.40;72.40
19567;DHT22;9930;49.240;8.548;2023-05-02T07:03:06;17.50;72.10
19567;DHT22;9930;49.240;8.548;2023-05-02T07:05:35;17.50;71.70
19567;DHT22;9930;49.240;8.548;2023-05-02T07:08:01;17.60;71.70
19567;DHT22;9930;49.240;8.548;2023-05-02T07:10:28;17.60;71.70
19567;DHT22;9930;49.240;8.548;2023-05-02T07:12:53;17.70;71.70
19567;DHT22;9930;49.240;8.548;2023-05-02T07:15:22;17.80;71.90
19567;DHT22;9930;49.240;8.548;2023-05-02T07:17:47;17.90;72.10
19567;DHT22;9930;49.240;8.548;2023-05-02T07:20:14;18.00;72.00
19567;DHT22;9930;49.240;8.548;2023-05-02T07:22:40;18.10;71.30
19567;DHT22;9930;49.240;8.548;2023-05-02T07:25:07;18.20;70.80
19567;DHT22;9930;49.240;8.548;2023-05-02T07:27:34;18.20;70.00
19567;DHT22;9930;49.240;8.548;2023-05-02T07:30:02;18.20;69.80
19567;DHT22;9930;49.240;8.548;2023-05-02T07:32:32;18.20;69.70
19567;DHT22;9930;49.240;8.548;2023-05-02T07:35:01;18.20;69.70
19567;DHT22;9930;49.240;8.548;2023-05-02T07:37:32;18.20;69.60
19567;DHT22;9930;49.240;8.548;2023-05-02T07:40:01;18.30;69.30
19567;DHT22;9930;49.240;8.548;2023-05-02T07:42:31;18.30;69.00
19567;DHT22;9930;49.240;8.548;2023-05-02T07:45:02;18.30;68.80
19567;DHT22;9930;49.240;8.548;2023-05-02T07:47:28;18.30;68.10
19567;DHT22;9930;49.240;8.548;2023-05-02T07:49:54;18.30;68.60
19567;DHT22;9930;49.240;8.548;2023-05-02T07:52:23;18.40;69.10
19567;DHT22;9930;49.240;8.548;2023-05-02T07:54:49;18.40;69.30
19567;DHT22;9930;49.240;8.548;2023-05-02T07:57:15;18.50;69.00
19567;DHT22;9930;49.240;8.548;2023-05-02T07:59:42;18.60;68.80
19567;DHT22;9930;49.240;8.548;2023-05-02T08:02:07;18.70;68.60
19567;DHT22;9930;49.240;8.548;2023-05-02T08:04:40;18.80;68.40
19567;DHT22;9930;49.240;8.548;2023-05-02T08:07:06;18.90;67.80
19567;DHT22;9930;49.240;8.548;2023-05-02T08:09:31;18.90;67.40
19567;DHT22;9930;49.240;8.548;2023-05-02T08:12:00;19.00;67.10
19567;DHT22;9930;49.240;8.548;2023-05-02T08:14:33;19.00;66.90
19567;DHT22;9930;49.240;8.548;2023-05-02T08:17:04;19.10;66.70
19567;DHT22;9930;49.240;8.548;2023-05-02T08:19:30;19.20;67.30
19567;DHT22;9930;49.240;8.548;2023-05-02T08:22:01;19.20;67.10
19567;DHT22;9930;49.240;8.548;2023-05-02T08:24:30;19.30;66.50
19567;DHT22;9930;49.240;8.548;2023-05-02T08:26:57;19.40;66.50
19567;DHT22;9930;49.240;8.548;2023-05-02T08:29:24;19.40;66.20
19567;DHT22;9930;49.240;8.548;2023-05-02T08:31:50;19.40;66.20
19567;DHT22;9930;49.240;8.548;2023-05-02T08:34:16;19.60;66.20
19567;DHT22;9930;49.240;8.548;2023-05-02T08:36:41;19.60;65.40
19567;DHT22;9930;49.240;8.548;2023-05-02T08:39:07;19.70;65.10
19567;DHT22;9930;49.240;8.548;2023-05-02T08:41:33;19.70;64.60
19567;DHT22;9930;49.240;8.548;2023-05-02T08:44:02;19.80;64.70
19567;DHT22;9930;49.240;8.548;2023-05-02T08:46:40;19.80;64.30
19567;DHT22;9930;49.240;8.548;2023-05-02T08:49:10;19.80;63.70
19567;DHT22;9930;49.240;8.548;2023-05-02T08:51:39;19.90;64.40
19567;DHT22;9930;49.240;8.548;2023-05-02T08:54:08;19.90;64.60
19567;DHT22;9930;49.240;8.548;2023-05-02T08:56:37;20.00;64.70
19567;DHT22;9930;49.240;8.548;2023-05-02T08:59:03;20.10;64.50
19567;DHT22;9930;49.240;8.548;2023-05-02T09:01:34;20.20;64.00
19567;DHT22;9930;49.240;8.548;2023-05-02T09:04:05;20.20;62.60
19567;DHT22;9930;49.240;8.548;2023-05-02T09:06:31;20.20;62.80
19567;DHT22;9930;49.240;8.548;2023-05-02T09:08:59;20.30;63.00
19567;DHT22;9930;49.240;8.548;2023-05-02T09:11:27;20.30;63.10
19567;DHT22;9930;49.240;8.548;2023-05-02T09:13:53;20.40;63.10
19567;DHT22;9930;49.240;8.548;2023-05-02T09:16:22;20.40;62.70
19567;DHT22;9930;49.240;8.548;2023-05-02T09:18:53;20.50;62.10
19567;DHT22;9930;49.240;8.548;2023-05-02T09:21:26;20.50;62.20
19567;DHT22;9930;49.240;8.548;2023-05-02T09:24:14;20.50;62.40
19567;DHT22;9930;49.240;8.548;2023-05-02T09:27:04;20.50;62.00
19567;DHT22;9930;49.240;8.548;2023-05-02T09:29:33;20.60;61.80
19567;DHT22;9930;49.240;8.548;2023-05-02T09:32:04;20.60;61.40
19567;DHT22;9930;49.240;8.548;2023-05-02T09:34:30;20.70;61.50
19567;DHT22;9930;49.240;8.548;2023-05-02T09:36:57;20.70;61.90
19567;DHT22;9930;49.240;8.548;2023-05-02T09:39:30;20.70;61.60
19567;DHT22;9930;49.240;8.548;2023-05-02T09:42:00;20.80;61.70
19567;DHT22;9930;49.240;8.548;2023-05-02T09:44:36;20.80;61.10
19567;DHT22;9930;49.240;8.548;2023-05-02T09:47:02;20.80;60.20
19567;DHT22;9930;49.240;8.548;2023-05-02T09:49:46;20.90;60.40
19567;DHT22;9930;49.240;8.548;2023-05-02T09:52:15;20.80;60.20
19567;DHT22;9930;49.240;8.548;2023-05-02T09:54:43;20.90;60.70
19567;DHT22;9930;49.240;8.548;2023-05-02T09:57:11;21.00;59.70
19567;DHT22;9930;49.240;8.548;2023-05-02T09:59:51;21.00;59.50
19567;DHT22;9930;49.240;8.548;2023-05-02T10:02:20;20.90;59.20
19567;DHT22;9930;49.240;8.548;2023-05-02T10:04:47;20.90;59.20
19567;DHT22;9930;49.240;8.548;2023-05-02T10:07:15;20.90;59.40
19567;DHT22;9930;49.240;8.548;2023-05-02T10:09:43;20.80;58.90
19567;DHT22;9930;49.240;8.548;2023-05-02T10:12:15;20.80;58.80
19567;DHT22;9930;49.240;8.548;2023-05-02T10:14:53;20.70;59.20
19567;DHT22;9930;49.240;8.548;2023-05-02T10:17:30;20.70;59.20
19567;DHT22;9930;49.240;8.548;2023-05-02T10:20:06;20.70;59.40
19567;DHT22;9930;49.240;8.548;2023-05-02T10:22:35;20.70;59.10
19567;DHT22;9930;49.240;8.548;2023-05-02T10:25:04;20.80;59.50
19567;DHT22;9930;49.240;8.548;2023-05-02T10:27:35;20.90;59.60
19567;DHT22;9930;49.240;8.548;2023-05-02T10:30:02;21.00;59.50
19567;DHT22;9930;49.240;8.548;2023-05-02T10:32:32;21.10;59.00
19567;DHT22;9930;49.240;8.548;2023-05-02T10:35:04;21.10;58.40
19567;DHT22;9930;49.240;8.548;2023-05-02T10:37:35;21.10;57.90
19567;DHT22;9930;49.240;8.548;2023-05-02T10:40:05;21.20;57.70
19567;DHT22;9930;49.240;8.548;2023-05-02T10:42:41;21.10;57.90
19567;DHT22;9930;49.240;8.548;2023-05-02T10:45:30;21.10;57.90
19567;DHT22;9930;49.240;8.548;2023-05-02T10:48:19;21.00;57.10
19567;DHT22;9930;49.240;8.548;2023-05-02T10:50:59;21.00;57.20
19567;DHT22;9930;49.240;8.548;2023-05-02T10:53:46;21.00;58.20
19567;DHT22;9930;49.240;8.548;2023-05-02T10:56:19;21.10;58.10
19567;DHT22;9930;49.240;8.548;2023-05-02T10:58:50;21.10;58.00
19567;DHT22;9930;49.240;8.548;2023-05-02T11:01:38;21.20;58.10
19567;DHT22;9930;49.240;8.548;2023-05-02T11:04:09;21.20;57.00
19567;DHT22;9930;49.240;8.548;2023-05-02T11:09:29;21.10;57.50
19567;DHT22;9930;49.240;8.548;2023-05-02T11:11:57;21.10;57.70
19567;DHT22;9930;49.240;8.548;2023-05-02T11:24:47;21.00;57.20
19567;DHT22;9930;49.240;8.548;2023-05-02T11:30:06;20.90;57.10
19567;DHT22;9930;49.240;8.548;2023-05-02T11:35:18;20.90;57.00
19567;DHT22;9930;49.240;8.548;2023-05-02T11:37:56;20.90;57.50
19567;DHT22;9930;49.240;8.548;2023-05-02T11:40:29;21.00;56.90
19567;DHT22;9930;49.240;8.548;2023-05-02T11:43:00;21.00;57.10
19567;DHT22;9930;49.240;8.548;2023-05-02T11:45:36;21.10;57.20
19567;DHT22;9930;49.240;8.548;2023-05-02T11:48:04;21.20;57.40
19567;DHT22;9930;49.240;8.548;2023-05-02T11:50:44;21.20;57.20
19567;DHT22;9930;49.240;8.548;2023-05-02T11:53:24;21.20;57.00
19567;DHT22;9930;49.240;8.548;2023-05-02T11:56:00;21.30;57.10
19567;DHT22;9930;49.240;8.548;2023-05-02T11:58:31;21.50;57.10
19567;DHT22;9930;49.240;8.548;2023-05-02T12:01:10;21.60;57.10
19567;DHT22;9930;49.240;8.548;2023-05-02T12:03:43;21.60;55.60
19567;DHT22;9930;49.240;8.548;2023-05-02T12:06:13;21.70;56.00
19567;DHT22;9930;49.240;8.548;2023-05-02T12:08:43;21.70;56.00
19567;DHT22;9930;49.240;8.548;2023-05-02T12:11:14;21.80;55.60
19567;DHT22;9930;49.240;8.548;2023-05-02T12:13:45;21.70;54.90
19567;DHT22;9930;49.240;8.548;2023-05-02T12:16:15;21.70;54.50
19567;DHT22;9930;49.240;8.548;2023-05-02T12:18:44;21.70;54.90
19567;DHT22;9930;49.240;8.548;2023-05-02T12:21:12;21.60;54.50
19567;DHT22;9930;49.240;8.548;2023-05-02T12:23:40;21.60;54.80
19567;DHT22;9930;49.240;8.548;2023-05-02T12:26:18;21.50;54.80
19567;DHT22;9930;49.240;8.548;2023-05-02T12:28:53;21.50;54.70
19567;DHT22;9930;49.240;8.548;2023-05-02T12:31:20;21.50;55.40
19567;DHT22;9930;49.240;8.548;2023-05-02T12:33:47;21.60;55.40
19567;DHT22;9930;49.240;8.548;2023-05-02T12:36:14;21.70;55.40
19567;DHT22;9930;49.240;8.548;2023-05-02T12:38:50;21.80;55.10
19567;DHT22;9930;49.240;8.548;2023-05-02T12:41:18;21.80;54.50
19567;DHT22;9930;49.240;8.548;2023-05-02T12:43:54;21.90;54.70
19567;DHT22;9930;49.240;8.548;2023-05-02T12:46:20;22.00;54.10
19567;DHT22;9930;49.240;8.548;2023-05-02T12:49:03;22.00;53.80
19567;DHT22;9930;49.240;8.548;2023-05-02T12:51:30;21.90;53.10
19567;DHT22;9930;49.240;8.548;2023-05-02T12:54:02;22.00;53.70
19567;DHT22;9930;49.240;8.548;2023-05-02T12:56:38;21.90;53.30
19567;DHT22;9930;49.240;8.548;2023-05-02T12:59:04;21.90;52.30
19567;DHT22;9930;49.240;8.548;2023-05-02T13:01:34;21.90;53.40
19567;DHT22;9930;49.240;8.548;2023-05-02T13:04:09;21.80;53.40
19567;DHT22;9930;49.240;8.548;2023-05-02T13:06:37;21.90;52.40
19567;DHT22;9930;49.240;8.548;2023-05-02T13:09:05;21.90;53.20
19567;DHT22;9930;49.240;8.548;2023-05-02T13:11:31;21.90;52.80
19567;DHT22;9930;49.240;8.548;2023-05-02T13:14:00;21.90;53.10
19567;DHT22;9930;49.240;8.548;2023-05-02T13:16:31;21.90;53.00
19567;DHT22;9930;49.240;8.548;2023-05-02T13:19:02;22.00;52.90
19567;DHT22;9930;49.240;8.548;2023-05-02T13:21:31;22.00;53.20
19567;DHT22;9930;49.240;8.548;2023-05-02T13:24:00;22.00;52.70
19567;DHT22;9930;49.240;8.548;2023-05-02T13:26:29;22.10;52.60
19567;DHT22;9930;49.240;8.548;2023-05-02T13:28:59;22.10;52.60
19567;DHT22;9930;49.240;8.548;2023-05-02T13:31:24;22.10;51.90
19567;DHT22;9930;49.240;8.548;2023-05-02T13:33:52;22.10;52.20
19567;DHT22;9930;49.240;8.548;2023-05-02T13:36:20;22.10;52.20
19567;DHT22;9930;49.240;8.548;2023-05-02T13:38:49;22.10;52.10
19567;DHT22;9930;49.240;8.548;2023-05-02T13:41:14;22.10;51.90
19567;DHT22;9930;49.240;8.548;2023-05-02T13:43:43;22.10;52.10
19567;DHT22;9930;49.240;8.548;2023-05-02T13:46:09;22.10;52.00
19567;DHT22;9930;49.240;8.548;2023-05-02T13:48:34;22.10;52.00
19567;DHT22;9930;49.240;8.548;2023-05-02T13:51:01;22.00;52.00
19567;DHT22;9930;49.240;8.548;2023-05-02T13:53:32;22.10;51.80
19567;DHT22;9930;49.240;8.548;2023-05-02T13:55:58;22.00;51.10
19567;DHT22;9930;49.240;8.548;2023-05-02T13:58:24;22.10;51.50
19567;DHT22;9930;49.240;8.548;2023-05-02T14:00:49;22.10;51.50
19567;DHT22;9930;49.240;8.548;2023-05-02T14:03:16;22.10;51.30
19567;DHT22;9930;49.240;8.548;2023-05-02T14:05:44;22.10;51.40
19567;DHT22;9930;49.240;8.548;2023-05-02T14:08:10;22.10;50.90
19567;DHT22;9930;49.240;8.548;2023-05-02T14:10:36;22.10;51.00
19567;DHT22;9930;49.240;8.548;2023-05-02T14:13:05;22.00;50.70
19567;DHT22;9930;49.240;8.548;2023-05-02T14:15:31;22.00;50.40
19567;DHT22;9930;49.240;8.548;2023-05-02T14:17:58;22.00;50.90
19567;DHT22;9930;49.240;8.548;2023-05-02T14:20:24;22.00;50.50
19567;DHT22;9930;49.240;8.548;2023-05-02T14:22:49;21.90;50.40
19567;DHT22;9930;49.240;8.548;2023-05-02T14:25:15;21.90;50.50
19567;DHT22;9930;49.240;8.548;2023-05-02T14:27:46;21.90;50.40
19567;DHT22;9930;49.240;8.548;2023-05-02T14:30:12;21.80;50.50
19567;DHT22;9930;49.240;8.548;2023-05-02T14:32:37;21.80;50.70
19567;DHT22;9930;49.240;8.548;2023-05-02T14:35:03;21.80;50.60
19567;DHT22;9930;49.240;8.548;2023-05-02T14:37:30;21.80;50.80
19567;DHT22;9930;49.240;8.548;2023-05-02T14:40:01;21.90;50.70
19567;DHT22;9930;49.240;8.548;2023-05-02T14:42:30;21.90;50.50
19567;DHT22;9930;49.240;8.548;2023-05-02T14:44:58;21.90;50.50
19567;DHT22;9930;49.240;8.548;2023-05-02T14:47:32;21.90;50.00
19567;DHT22;9930;49.240;8.548;2023-05-02T14:50:07;21.90;49.40
19567;DHT22;9930;49.240;8.548;2023-05-02T14:52:33;21.90;49.40
19567;DHT22;9930;49.240;8.548;2023-05-02T14:55:00;21.90;49.40
19567;DHT22;9930;49.240;8.548;2023-05-02T14:57:31;21.90;49.00
19567;DHT22;9930;49.240;8.548;2023-05-02T14:59:58;21.90;49.00
19567;DHT22;9930;49.240;8.548;2023-05-02T15:02:25;21.90;49.10
19567;DHT22;9930;49.240;8.548;2023-05-02T15:04:53;21.90;48.70
19567;DHT22;9930;49.240;8.548;2023-05-02T15:07:21;21.90;48.90
19567;DHT22;9930;49.240;8.548;2023-05-02T15:09:49;21.80;48.40
19567;DHT22;9930;49.240;8.548;2023-05-02T15:12:17;21.80;49.30
19567;DHT22;9930;49.240;8.548;2023-05-02T15:14:43;21.80;48.50
19567;DHT22;9930;49.240;8.548;2023-05-02T15:17:10;21.80;48.50
19567;DHT22;9930;49.240;8.548;2023-05-02T15:19:36;21.80;48.40
19567;DHT22;9930;49.240;8.548;2023-05-02T15:22:02;21.80;48.70
19567;DHT22;9930;49.240;8.548;2023-05-02T15:24:28;21.80;48.20
19567;DHT22;9930;49.240;8.548;2023-05-02T15:26:54;21.70;48.60
19567;DHT22;9930;49.240;8.548;2023-05-02T15:29:20;21.80;48.60
19567;DHT22;9930;49.240;8.548;2023-05-02T15:31:49;21.70;48.80
19567;DHT22;9930;49.240;8.548;2023-05-02T15:34:14;21.70;48.90
19567;DHT22;9930;49.240;8.548;2023-05-02T15:36:42;21.70;49.00
19567;DHT22;9930;49.240;8.548;2023-05-02T15:39:08;21.80;48.80
19567;DHT22;9930;49.240;8.548;2023-05-02T15:41:34;21.70;48.90
19567;DHT22;9930;49.240;8.548;2023-05-02T15:43:59;21.70;48.80
19567;DHT22;9930;49.240;8.548;2023-05-02T15:46:25;21.70;48.90
19567;DHT22;9930;49.240;8.548;2023-05-02T15:48:54;21.70;48.90
19567;DHT22;9930;49.240;8.548;2023-05-02T15:51:23;21.70;48.80
19567;DHT22;9930;49.240;8.548;2023-05-02T15:53:55;21.70;48.20
19567;DHT22;9930;49.240;8.548;2023-05-02T15:56:28;21.60;48.40
19567;DHT22;9930;49.240;8.548;2023-05-02T15:58:55;21.60;48.40
19567;DHT22;9930;49.240;8.548;2023-05-02T16:01:20;21.50;48.40
19567;DHT22;9930;49.240;8.548;2023-05-02T16:03:48;21.50;48.50
19567;DHT22;9930;49.240;8.548;2023-05-02T16:06:17;21.50;48.30
19567;DHT22;9930;49.240;8.548;2023-05-02T16:08:45;21.40;48.20
19567;DHT22;9930;49.240;8.548;2023-05-02T16:11:15;21.40;48.50
19567;DHT22;9930;49.240;8.548;2023-05-02T16:13:54;21.40;48.00
19567;DHT22;9930;49.240;8.548;2023-05-02T16:16:20;21.30;48.20
19567;DHT22;9930;49.240;8.548;2023-05-02T16:18:48;21.30;48.30
19567;DHT22;9930;49.240;8.548;2023-05-02T16:21:26;21.20;48.30
19567;DHT22;9930;49.240;8.548;2023-05-02T16:24:00;21.20;48.20
19567;DHT22;9930;49.240;8.548;2023-05-02T16:26:32;21.20;48.30
19567;DHT22;9930;49.240;8.548;2023-05-02T16:28:59;21.20;48.00
19567;DHT22;9930;49.240;8.548;2023-05-02T16:31:26;21.10;47.90
19567;DHT22;9930;49.240;8.548;2023-05-02T16:33:59;21.10;48.20
19567;DHT22;9930;49.240;8.548;2023-05-02T16:36:29;21.00;48.20
19567;DHT22;9930;49.240;8.548;2023-05-02T16:39:09;21.00;47.90
19567;DHT22;9930;49.240;8.548;2023-05-02T16:41:38;21.00;47.50
19567;DHT22;9930;49.240;8.548;2023-05-02T16:44:05;21.00;47.80